Time;durP1;ratioP1;P1;durP2;ratioP2;P2;SDS_P1;SDS_P2;PMS_P1;PMS_P2;Temp;Humidity;BMP_temperature;BMP_pressure;BME280_temperature;BME280_humidity;BME280_pressure;Samples;Min_cycle;Max_cycle;Signal;HPM_P1;HPM_P2
2021/04/27 00:01:14;;;;;;;9.52;5.50;;;4.70;65.40;;;;;;5073791;28;20433;-74
2021/04/27 00:03:40;;;;;;;10.30;5.85;;;4.70;65.40;;;;;;5073585;28;20082;-74
2021/04/27 00:06:05;;;;;;;11.18;7.10;;;4.70;65.40;;;;;;5073821;28;20060;-74
2021/04/27 00:08:31;;;;;;;10.60;6.68;;;4.70;65.40;;;;;;5073682;28;20036;-75
2021/04/27 00:10:58;;;;;;;10.95;6.93;;;4.70;65.50;;;;;;5073662;28;20032;-74
2021/04/27 00:13:25;;;;;;;11.40;7.05;;;4.70;65.50;;;;;;5073403;28;20083;-74
2021/04/27 00:15:50;;;;;;;12.88;7.43;;;4.70;65.50;;;;;;5072030;28;20043;-74
2021/04/27 00:18:16;;;;;;;15.88;7.72;;;4.70;65.50;;;;;;5073243;28;20462;-74
2021/04/27 00:20:42;;;;;;;14.88;7.57;;;4.60;65.50;;;;;;5072023;28;20032;-74
2021/04/27 00:23:08;;;;;;;12.88;6.95;;;4.60;65.60;;;;;;5073436;28;20044;-74
2021/04/27 00:25:33;;;;;;;17.80;8.10;;;4.60;65.60;;;;;;5073125;28;20025;-73
2021/04/27 00:27:59;;;;;;;12.75;7.85;;;4.50;65.70;;;;;;5073079;28;20024;-74
2021/04/27 00:30:26;;;;;;;19.23;10.23;;;4.50;65.80;;;;;;5073303;28;20029;-74
2021/04/27 00:32:52;;;;;;;23.08;12.35;;;4.50;65.90;;;;;;5072956;28;20142;-74
2021/04/27 00:35:18;;;;;;;20.70;10.35;;;4.40;66.00;;;;;;5073695;28;20062;-74
2021/04/27 00:37:45;;;;;;;24.00;10.85;;;4.40;66.20;;;;;;5073625;28;20482;-74
2021/04/27 00:40:13;;;;;;;20.17;10.02;;;4.30;66.20;;;;;;5073430;28;20037;-74
2021/04/27 00:42:41;;;;;;;18.60;9.50;;;4.30;66.50;;;;;;5073092;28;20028;-73
2021/04/27 00:45:09;;;;;;;16.17;9.02;;;4.20;66.70;;;;;;5073482;28;20485;-74
2021/04/27 00:47:35;;;;;;;17.92;9.52;;;4.20;66.90;;;;;;5071981;28;20112;-74
2021/04/27 00:50:04;;;;;;;19.35;9.65;;;4.10;66.90;;;;;;5073783;28;20058;-74
2021/04/27 00:52:30;;;;;;;18.60;9.43;;;4.10;67.10;;;;;;5073053;28;20439;-76
2021/04/27 00:54:55;;;;;;;17.20;9.30;;;4.00;67.20;;;;;;5073270;28;20035;-74
2021/04/27 00:57:22;;;;;;;13.18;7.78;;;4.00;67.30;;;;;;5073197;28;20044;-74
2021/04/27 00:59:48;;;;;;;14.35;9.18;;;4.00;67.50;;;;;;5073203;28;20028;-74
2021/04/27 01:02:14;;;;;;;15.48;7.93;;;4.00;67.60;;;;;;5072727;28;20032;-74
2021/04/27 01:04:40;;;;;;;13.93;7.63;;;4.00;67.70;;;;;;5072986;28;20360;-74
2021/04/27 01:07:05;;;;;;;15.93;7.90;;;3.90;68.30;;;;;;5073322;28;20039;-74
2021/04/27 01:09:41;;;;;;;13.40;7.75;;;3.90;67.80;;;;;;5074571;28;20036;-75
2021/04/27 01:12:13;;;;;;;13.77;7.90;;;3.90;68.00;;;;;;5076685;28;20097;-74
2021/04/27 01:14:43;;;;;;;13.35;7.32;;;3.90;68.00;;;;;;5076646;28;20028;-74
2021/04/27 01:17:12;;;;;;;16.15;7.47;;;3.80;68.10;;;;;;5076661;28;20463;-75
2021/04/27 01:19:56;;;;;;;15.63;7.88;;;3.80;68.10;;;;;;5076518;28;20021;-74
2021/04/27 01:22:35;;;;;;;18.38;8.73;;;3.80;68.30;;;;;;5077292;28;20402;-74
2021/04/27 01:25:03;;;;;;;16.45;8.38;;;3.80;68.40;;;;;;5077257;28;20134;-74
2021/04/27 01:27:30;;;;;;;17.45;8.18;;;3.80;68.50;;;;;;5075614;28;20047;-74
2021/04/27 01:29:59;;;;;;;15.10;8.65;;;3.70;68.50;;;;;;5075491;28;20107;-74
2021/04/27 01:32:24;;;;;;;15.50;8.10;;;3.70;68.60;;;;;;5076531;28;20112;-74
2021/04/27 01:34:51;;;;;;;15.27;7.78;;;3.70;68.70;;;;;;5075412;28;20101;-74
2021/04/27 01:37:18;;;;;;;14.02;7.90;;;3.70;68.80;;;;;;5076410;28;20382;-74
2021/04/27 01:39:44;;;;;;;16.02;9.43;;;3.70;69.00;;;;;;5076484;28;20430;-74
2021/04/27 01:42:10;;;;;;;13.70;8.55;;;3.70;69.00;;;;;;5076057;28;20378;-74
2021/04/27 01:44:38;;;;;;;15.15;9.15;;;3.70;69.10;;;;;;5076391;28;20020;-74
2021/04/27 01:47:06;;;;;;;17.15;9.23;;;3.70;69.10;;;;;;5076528;28;20409;-74
2021/04/27 01:49:32;;;;;;;15.68;8.52;;;3.60;69.20;;;;;;5075080;28;20028;-74
2021/04/27 01:51:58;;;;;;;16.02;9.02;;;3.60;69.30;;;;;;5074894;28;20038;-74
2021/04/27 01:54:25;;;;;;;13.38;8.23;;;3.60;69.40;;;;;;5075842;28;20035;-74
2021/04/27 02:00:16;;;;;;;16.90;10.32;;;3.60;69.80;;;;;;5055893;28;20056;-74
2021/04/27 02:02:42;;;;;;;17.45;10.68;;;3.60;69.60;;;;;;5056386;28;20378;-74
2021/04/27 02:05:09;;;;;;;19.60;10.45;;;3.50;69.60;;;;;;5056047;28;20398;-73
2021/04/27 02:07:35;;;;;;;21.95;12.48;;;3.50;69.80;;;;;;5056174;28;20025;-74
2021/04/27 02:10:06;;;;;;;21.33;12.32;;;3.50;69.90;;;;;;5062992;28;20070;-74
2021/04/27 02:12:34;;;;;;;21.45;11.52;;;3.50;70.10;;;;;;5075649;28;20056;-74
2021/04/27 02:15:00;;;;;;;20.02;10.93;;;3.40;70.20;;;;;;5075892;28;20107;-74
2021/04/27 02:17:36;;;;;;;21.73;11.25;;;3.40;70.30;;;;;;5075667;28;20171;-74
2021/04/27 02:20:04;;;;;;;22.38;11.60;;;3.40;70.50;;;;;;5075531;28;20101;-74
2021/04/27 02:22:30;;;;;;;23.70;12.57;;;3.40;70.50;;;;;;5075428;28;20035;-74
2021/04/27 02:24:59;;;;;;;20.27;12.07;;;3.40;70.60;;;;;;5075508;28;20031;-74
2021/04/27 02:27:25;;;;;;;18.38;12.05;;;3.40;70.70;;;;;;5075934;28;20028;-73
2021/04/27 02:29:53;;;;;;;19.52;10.90;;;3.30;70.70;;;;;;5074115;28;20427;-74
2021/04/27 02:32:20;;;;;;;17.40;10.88;;;3.30;70.90;;;;;;5075195;28;20036;-74
2021/04/27 02:34:47;;;;;;;17.90;10.73;;;3.30;70.90;;;;;;5075553;28;20111;-74
2021/04/27 02:37:15;;;;;;;17.08;10.60;;;3.30;71.10;;;;;;5074229;28;20115;-74
2021/04/27 02:39:40;;;;;;;19.40;11.45;;;3.20;71.10;;;;;;5075218;28;20031;-75
2021/04/27 02:42:07;;;;;;;19.25;11.48;;;3.20;71.20;;;;;;5075489;28;20381;-74
2021/04/27 02:44:32;;;;;;;20.02;11.57;;;3.20;71.30;;;;;;5075444;28;20432;-74
2021/04/27 02:46:58;;;;;;;19.05;11.77;;;3.20;71.40;;;;;;5075119;28;20055;-74
2021/04/27 02:49:24;;;;;;;26.13;14.55;;;3.20;71.50;;;;;;5075166;28;20054;-74
2021/04/27 02:51:50;;;;;;;31.20;15.48;;;3.20;71.60;;;;;;5075136;28;20381;-74
2021/04/27 02:54:15;;;;;;;26.95;15.55;;;3.20;71.70;;;;;;5074841;28;20032;-74
2021/04/27 03:00:46;;;;;;;30.83;14.02;;;3.20;72.00;;;;;;5071718;28;20102;-74
2021/04/27 03:03:12;;;;;;;28.77;15.05;;;3.20;71.90;;;;;;5075344;28;20056;-74
2021/04/27 03:05:38;;;;;;;26.90;13.05;;;3.20;71.80;;;;;;5074893;28;20025;-74
2021/04/27 03:08:05;;;;;;;20.65;11.27;;;3.20;72.00;;;;;;5074888;28;20025;-74
2021/04/27 03:10:31;;;;;;;21.77;11.65;;;3.20;72.00;;;;;;5074730;28;20028;-74
2021/04/27 03:12:57;;;;;;;23.35;11.88;;;3.30;72.10;;;;;;5073580;28;20401;-74
2021/04/27 03:15:23;;;;;;;19.20;10.40;;;3.30;72.10;;;;;;5074522;28;20453;-74
2021/04/27 03:17:48;;;;;;;16.20;9.27;;;3.30;72.20;;;;;;5074369;28;20021;-74
2021/04/27 03:20:15;;;;;;;17.60;9.90;;;3.30;72.20;;;;;;5074629;28;20343;-74
2021/04/27 03:22:41;;;;;;;14.23;8.95;;;3.40;72.20;;;;;;5074449;28;20037;-75
2021/04/27 03:25:09;;;;;;;12.60;8.32;;;3.40;72.30;;;;;;5074530;28;20033;-75
2021/04/27 03:27:35;;;;;;;16.33;8.77;;;3.40;72.40;;;;;;5074778;28;20029;-75
2021/04/27 03:30:04;;;;;;;15.40;8.20;;;3.60;72.50;;;;;;5073964;28;20058;-74
2021/04/27 03:32:30;;;;;;;16.40;9.07;;;3.60;72.50;;;;;;5073072;28;20115;-74
2021/04/27 03:34:56;;;;;;;14.00;7.88;;;3.70;72.50;;;;;;5074360;28;20153;-74
2021/04/27 03:37:22;;;;;;;11.27;7.70;;;3.90;72.40;;;;;;5074333;28;20422;-75
2021/04/27 03:39:47;;;;;;;10.35;7.18;;;4.00;72.20;;;;;;5072967;28;20032;-75
2021/04/27 03:42:13;;;;;;;14.45;7.57;;;4.10;71.90;;;;;;5074321;28;20028;-75
2021/04/27 03:44:39;;;;;;;14.07;7.72;;;4.10;71.60;;;;;;5072948;28;20028;-74
2021/04/27 03:47:05;;;;;;;14.25;8.75;;;4.10;71.40;;;;;;5074063;28;20033;-75
2021/04/27 03:49:31;;;;;;;13.35;7.70;;;4.20;71.20;;;;;;5073649;28;20032;-74
2021/04/27 03:51:58;;;;;;;15.07;8.63;;;4.20;71.10;;;;;;5072594;28;20032;-75
2021/04/27 03:54:25;;;;;;;16.70;8.75;;;4.20;71.10;;;;;;5073839;28;20483;-74
2021/04/27 03:56:51;;;;;;;14.68;8.75;;;4.20;71.10;;;;;;5072388;28;20048;-74
2021/04/27 04:02:38;;;;;;;12.18;8.32;;;4.20;71.10;;;;;;5073046;28;20059;-76
2021/04/27 04:05:04;;;;;;;15.20;9.00;;;4.20;71.50;;;;;;5073352;28;20021;-75
2021/04/27 04:07:30;;;;;;;22.15;10.57;;;4.30;71.00;;;;;;5073565;28;20115;-76
2021/04/27 04:09:56;;;;;;;14.70;9.32;;;4.30;71.00;;;;;;5073458;28;20120;-74
2021/04/27 04:12:21;;;;;;;16.45;9.70;;;4.30;70.90;;;;;;5073721;28;20082;-74
2021/04/27 04:14:47;;;;;;;20.25;9.43;;;4.40;70.90;;;;;;5073648;28;20078;-75
2021/04/27 04:17:13;;;;;;;19.83;9.75;;;4.40;70.80;;;;;;5073847;28;20024;-74
2021/04/27 04:19:39;;;;;;;16.17;8.80;;;4.40;70.90;;;;;;5071683;28;20130;-74
2021/04/27 04:22:06;;;;;;;17.60;9.43;;;4.50;70.90;;;;;;5073101;28;20035;-75
2021/04/27 04:24:32;;;;;;;15.93;9.80;;;4.60;70.90;;;;;;5073883;28;20332;-75
2021/04/27 04:26:58;;;;;;;14.18;8.88;;;4.70;70.90;;;;;;5073107;28;20052;-75
2021/04/27 04:29:25;;;;;;;13.80;8.30;;;4.70;70.70;;;;;;5073251;28;20111;-75
2021/04/27 04:31:51;;;;;;;14.68;8.15;;;4.80;70.70;;;;;;5073127;28;20034;-76
2021/04/27 04:34:17;;;;;;;12.85;7.80;;;4.80;70.50;;;;;;5073205;28;20039;-76
2021/04/27 04:36:43;;;;;;;12.70;6.78;;;4.90;70.30;;;;;;5072017;28;20112;-76
2021/04/27 04:39:10;;;;;;;14.73;8.45;;;5.00;70.20;;;;;;5073269;28;20112;-76
2021/04/27 04:41:36;;;;;;;14.93;8.35;;;5.10;70.10;;;;;;5072732;28;20020;-76
2021/04/27 04:44:02;;;;;;;13.68;8.13;;;5.10;69.90;;;;;;5071965;28;20478;-75
2021/04/27 04:46:28;;;;;;;18.95;8.80;;;5.20;69.90;;;;;;5072430;28;20106;-75
2021/04/27 04:48:54;;;;;;;16.67;8.95;;;5.30;69.70;;;;;;5071866;28;20036;-75
2021/04/27 04:51:20;;;;;;;14.32;8.55;;;5.40;69.40;;;;;;5071347;28;20367;-75
2021/04/27 04:53:45;;;;;;;15.43;7.97;;;5.50;69.30;;;;;;5072626;28;20035;-75
2021/04/27 04:56:11;;;;;;;15.40;8.38;;;5.60;69.10;;;;;;5072431;28;20032;-75
2021/04/27 04:58:37;;;;;;;13.90;7.72;;;5.70;69.00;;;;;;5072219;28;20070;-75
2021/04/27 05:04:24;;;;;;;16.45;8.98;;;5.90;68.00;;;;;;5072268;28;20140;-75
2021/04/27 05:06:51;;;;;;;13.13;7.30;;;6.00;67.90;;;;;;5072734;28;20064;-75
2021/04/27 05:09:17;;;;;;;11.77;6.85;;;6.10;67.80;;;;;;5072553;28;20037;-75
2021/04/27 05:11:44;;;;;;;11.45;6.47;;;6.20;67.60;;;;;;5072198;28;20425;-75
2021/04/27 05:14:10;;;;;;;11.63;4.95;;;6.40;67.40;;;;;;5072450;28;20052;-75
2021/04/27 05:16:36;;;;;;;7.10;4.93;;;6.50;66.80;;;;;;5072830;28;20025;-75
2021/04/27 05:19:03;;;;;;;7.55;4.60;;;6.70;66.20;;;;;;5072357;28;20033;-75
2021/04/27 05:21:28;;;;;;;9.55;5.03;;;6.80;65.60;;;;;;5072559;28;20028;-75
2021/04/27 05:23:54;;;;;;;9.95;5.57;;;6.90;65.10;;;;;;5072393;28;20024;-75
2021/04/27 05:26:20;;;;;;;6.88;4.60;;;7.10;64.70;;;;;;5072196;28;20040;-75
2021/04/27 05:28:46;;;;;;;8.18;4.90;;;7.20;64.20;;;;;;5072172;28;20436;-75
2021/04/27 05:31:11;;;;;;;8.30;4.93;;;7.30;63.50;;;;;;5072577;28;20036;-76
2021/04/27 05:33:37;;;;;;;8.80;5.30;;;7.40;62.80;;;;;;5072056;28;20035;-77
2021/04/27 05:36:03;;;;;;;8.13;4.72;;;7.50;62.30;;;;;;5072312;28;20115;-75
2021/04/27 05:38:29;;;;;;;9.55;5.47;;;7.60;61.90;;;;;;5072156;28;20063;-75
2021/04/27 05:40:54;;;;;;;7.75;4.85;;;7.80;61.40;;;;;;5071779;28;20037;-76
2021/04/27 05:43:20;;;;;;;6.15;4.20;;;7.90;60.90;;;;;;5071611;28;20119;-75
2021/04/27 05:45:46;;;;;;;9.68;5.13;;;7.90;60.30;;;;;;5072696;28;20047;-75
2021/04/27 05:48:12;;;;;;;5.60;4.28;;;8.00;59.90;;;;;;5072609;28;20028;-75
2021/04/27 05:50:38;;;;;;;6.90;4.72;;;8.10;59.60;;;;;;5072448;28;20024;-76
2021/04/27 05:53:04;;;;;;;8.15;4.65;;;8.10;59.20;;;;;;5072334;28;20082;-76
2021/04/27 05:55:30;;;;;;;8.10;4.85;;;8.20;59.00;;;;;;5073939;28;20115;-76
2021/04/27 05:57:57;;;;;;;6.93;4.50;;;8.30;58.80;;;;;;5074582;28;20129;-76
2021/04/27 06:06:11;;;;;;;7.05;4.80;;;8.70;57.70;;;;;;5075330;28;20055;-75
2021/04/27 06:08:37;;;;;;;11.60;4.68;;;8.80;57.60;;;;;;5075467;28;20020;-76
2021/04/27 06:11:06;;;;;;;10.13;5.22;;;8.90;57.20;;;;;;5075372;28;20029;-75
2021/04/27 06:13:33;;;;;;;8.65;4.50;;;9.00;57.10;;;;;;5075825;28;20020;-76
2021/04/27 06:15:59;;;;;;;8.80;5.03;;;9.20;57.20;;;;;;5076067;28;20094;-76
2021/04/27 06:18:25;;;;;;;8.40;4.85;;;9.30;57.10;;;;;;5075167;28;20471;-75
2021/04/27 06:20:50;;;;;;;12.05;5.47;;;9.40;56.90;;;;;;5075307;28;20029;-77
2021/04/27 06:23:16;;;;;;;7.45;4.97;;;9.50;56.50;;;;;;5074085;28;20036;-75
2021/04/27 06:25:42;;;;;;;10.70;6.05;;;9.50;56.10;;;;;;5075375;28;20086;-74
2021/04/27 06:28:10;;;;;;;10.18;6.10;;;9.60;56.20;;;;;;5074693;28;20440;-75
2021/04/27 06:30:37;;;;;;;9.00;4.43;;;9.60;56.20;;;;;;5075818;28;20033;-75
2021/04/27 06:33:02;;;;;;;8.23;4.70;;;9.70;55.80;;;;;;5073865;28;20032;-75
2021/04/27 06:35:28;;;;;;;9.00;4.55;;;9.70;55.20;;;;;;5075372;28;20489;-75
2021/04/27 06:37:54;;;;;;;9.05;4.60;;;9.70;55.10;;;;;;5075123;28;20081;-75
2021/04/27 06:40:20;;;;;;;8.50;4.82;;;9.80;55.20;;;;;;5074848;28;20021;-75
2021/04/27 06:42:46;;;;;;;6.95;5.05;;;9.90;55.30;;;;;;5074638;28;20056;-75
2021/04/27 06:45:13;;;;;;;7.43;4.68;;;10.10;54.90;;;;;;5074913;28;20070;-75
2021/04/27 06:47:39;;;;;;;7.10;4.68;;;10.20;54.20;;;;;;5074808;28;20036;-75
2021/04/27 06:50:06;;;;;;;9.00;4.93;;;10.30;53.70;;;;;;5074371;28;20028;-75
2021/04/27 06:52:32;;;;;;;6.63;4.70;;;10.40;53.20;;;;;;5072521;28;20028;-75
2021/04/27 06:54:58;;;;;;;6.88;4.55;;;10.60;52.70;;;;;;5072418;28;20025;-77
2021/04/27 06:57:25;;;;;;;6.88;4.75;;;10.70;52.40;;;;;;5073812;28;20028;-75
2021/04/27 06:59:50;;;;;;;9.55;4.80;;;10.90;52.40;;;;;;5074115;28;20466;-76
2021/04/27 07:02:16;;;;;;;10.18;4.93;;;11.10;52.70;;;;;;5073503;28;20028;-77
2021/04/27 07:04:42;;;;;;;8.40;4.60;;;11.30;52.90;;;;;;5069744;28;20529;-75
2021/04/27 07:07:08;;;;;;;6.95;4.82;;;11.50;52.70;;;;;;5073539;28;20071;-76
2021/04/27 07:09:34;;;;;;;6.32;4.80;;;11.70;52.20;;;;;;5072964;28;20462;-76
2021/04/27 07:12:00;;;;;;;8.60;4.95;;;11.80;51.80;;;;;;5073080;28;20033;-76
2021/04/27 07:14:27;;;;;;;12.85;5.55;;;11.90;51.60;;;;;;5073360;28;20035;-76
2021/04/27 07:16:53;;;;;;;8.23;4.93;;;12.00;51.50;;;;;;5071948;28;20351;-77
2021/04/27 07:19:18;;;;;;;6.68;4.75;;;11.90;51.30;;;;;;5073251;28;20032;-76
2021/04/27 07:21:44;;;;;;;9.52;5.75;;;12.00;51.00;;;;;;5073361;28;20025;-76
2021/04/27 07:24:11;;;;;;;8.80;4.90;;;12.20;50.70;;;;;;5073008;28;20101;-75
2021/04/27 07:26:40;;;;;;;6.78;5.10;;;12.40;50.50;;;;;;5073193;28;20457;-75
2021/04/27 07:29:06;;;;;;;6.40;4.45;;;12.60;49.70;;;;;;5070771;28;20036;-76
2021/04/27 07:31:32;;;;;;;12.10;4.78;;;12.80;48.70;;;;;;5073002;28;20100;-75
2021/04/27 07:33:58;;;;;;;5.28;3.88;;;12.80;47.80;;;;;;5072852;28;20115;-75
2021/04/27 07:36:23;;;;;;;4.72;3.92;;;12.80;46.70;;;;;;5072981;28;20024;-75
2021/04/27 07:38:49;;;;;;;9.45;3.97;;;12.70;46.00;;;;;;5072768;28;20083;-74
2021/04/27 07:41:15;;;;;;;12.27;4.78;;;12.60;45.50;;;;;;5072229;28;20124;-76
2021/04/27 07:43:41;;;;;;;8.48;4.47;;;12.50;45.40;;;;;;5072700;28;20029;-76
2021/04/27 07:46:06;;;;;;;5.10;3.72;;;12.30;44.90;;;;;;5072395;28;20020;-75
2021/04/27 07:48:32;;;;;;;7.85;4.10;;;12.20;44.70;;;;;;5072874;28;20021;-74
2021/04/27 07:50:59;;;;;;;10.15;3.83;;;12.20;44.80;;;;;;5072666;28;20033;-75
2021/04/27 07:53:24;;;;;;;5.10;3.45;;;12.20;44.60;;;;;;5072581;28;20020;-75
2021/04/27 07:55:50;;;;;;;7.00;3.60;;;12.10;44.30;;;;;;5072656;28;20024;-75
2021/04/27 07:58:16;;;;;;;15.73;4.45;;;12.10;44.50;;;;;;5072593;28;20048;-75
2021/04/27 08:00:42;;;;;;;4.55;3.55;;;12.20;45.00;;;;;;5072417;28;20020;-75
2021/04/27 08:06:42;;;;;;;5.18;3.78;;;12.70;44.20;;;;;;5068470;28;20416;-76
2021/04/27 08:09:09;;;;;;;6.45;4.03;;;13.00;43.60;;;;;;5067691;28;20048;-75
2021/04/27 08:11:35;;;;;;;7.70;3.88;;;13.10;43.20;;;;;;5072296;28;20016;-75
2021/04/27 08:14:02;;;;;;;7.55;3.90;;;13.20;42.90;;;;;;5072015;28;20035;-76
2021/04/27 08:16:28;;;;;;;6.10;4.18;;;13.40;42.80;;;;;;5073735;28;20036;-75
2021/04/27 08:18:53;;;;;;;6.80;4.05;;;13.80;42.60;;;;;;5072863;28;20035;-77
2021/04/27 08:21:19;;;;;;;6.90;4.00;;;14.10;42.10;;;;;;5073187;28;20481;-76
2021/04/27 08:23:45;;;;;;;4.47;3.60;;;14.50;42.00;;;;;;5073097;28;20032;-76
2021/04/27 08:26:12;;;;;;;6.07;3.83;;;14.80;41.50;;;;;;5072938;28;20107;-74
2021/04/27 08:28:39;;;;;;;4.75;3.95;;;15.10;41.40;;;;;;5073139;28;20017;-75
2021/04/27 08:31:05;;;;;;;7.45;3.90;;;15.40;40.80;;;;;;5073233;28;20035;-75
2021/04/27 08:33:31;;;;;;;6.70;4.20;;;15.60;40.30;;;;;;5072035;28;20466;-76
2021/04/27 08:35:57;;;;;;;4.75;3.67;;;16.00;40.10;;;;;;5073281;28;20043;-76
2021/04/27 08:38:23;;;;;;;5.47;3.92;;;16.40;39.80;;;;;;5072966;28;20036;-76
2021/04/27 08:40:49;;;;;;;6.18;4.18;;;17.00;39.40;;;;;;5073218;28;20103;-75
2021/04/27 08:43:17;;;;;;;4.80;3.60;;;17.60;38.70;;;;;;5072921;28;20106;-75
2021/04/27 08:45:44;;;;;;;7.00;4.07;;;18.10;37.60;;;;;;5073178;28;20446;-76
2021/04/27 08:48:12;;;;;;;4.72;3.63;;;18.40;36.70;;;;;;5072952;28;20189;-75
2021/04/27 08:50:39;;;;;;;5.60;3.47;;;18.80;35.80;;;;;;5073017;28;20458;-75
2021/04/27 08:53:06;;;;;;;4.80;3.78;;;18.80;35.30;;;;;;5072912;28;20025;-76
2021/04/27 08:55:33;;;;;;;4.35;3.35;;;19.10;35.60;;;;;;5072762;28;20028;-74
2021/04/27 08:57:58;;;;;;;6.43;3.72;;;19.50;35.30;;;;;;5072305;28;20044;-75
2021/04/27 09:00:25;;;;;;;3.88;3.08;;;20.30;35.30;;;;;;5072584;28;20028;-76
2021/04/27 09:06:15;;;;;;;6.30;3.72;;;20.80;32.70;;;;;;5051157;28;20510;-76
2021/04/27 09:08:41;;;;;;;4.10;3.45;;;20.30;33.10;;;;;;5052729;28;20037;-75
2021/04/27 09:11:29;;;;;;;4.88;3.65;;;19.90;33.00;;;;;;5052836;28;20071;-76
2021/04/27 09:14:14;;;;;;;4.53;3.78;;;20.10;33.00;;;;;;5052514;28;20033;-75
2021/04/27 09:17:04;;;;;;;8.60;4.80;;;20.50;32.40;;;;;;5058522;28;20028;-75
2021/04/27 09:19:35;;;;;;;7.53;4.20;;;20.90;32.60;;;;;;5073143;28;20123;-75
2021/04/27 09:22:05;;;;;;;7.32;3.80;;;21.90;32.50;;;;;;5072392;28;20417;-75
2021/04/27 09:24:37;;;;;;;4.72;3.63;;;22.30;31.50;;;;;;5072580;28;20470;-75
2021/04/27 09:27:04;;;;;;;6.30;3.85;;;22.70;31.40;;;;;;5072873;28;20029;-76
2021/04/27 09:29:38;;;;;;;5.68;3.17;;;22.90;30.50;;;;;;5071465;28;20033;-76
2021/04/27 09:32:04;;;;;;;4.50;3.33;;;22.60;29.90;;;;;;5076462;28;20064;-76
2021/04/27 09:34:40;;;;;;;3.88;3.20;;;22.20;30.00;;;;;;5076554;28;20550;-77
2021/04/27 09:37:12;;;;;;;4.88;3.40;;;21.80;30.00;;;;;;5076169;28;20062;-77
2021/04/27 09:39:43;;;;;;;5.13;3.33;;;21.40;30.00;;;;;;5076160;28;20081;-76
2021/04/27 09:42:21;;;;;;;4.47;3.28;;;20.80;29.90;;;;;;5076139;28;20028;-76
2021/04/27 09:44:53;;;;;;;5.07;3.28;;;20.20;30.10;;;;;;5076007;28;20077;-75
2021/04/27 09:47:25;;;;;;;8.57;3.85;;;19.80;30.70;;;;;;5076505;28;20040;-75
2021/04/27 09:50:05;;;;;;;7.18;4.57;;;19.50;32.10;;;;;;5076187;28;20032;-76
2021/04/27 09:52:44;;;;;;;6.03;3.95;;;19.40;33.20;;;;;;5075733;28;20040;-76
2021/04/27 09:55:17;;;;;;;8.02;4.53;;;19.20;33.70;;;;;;5073791;28;20044;-76
2021/04/27 09:57:48;;;;;;;7.57;4.00;;;18.90;34.30;;;;;;5076536;28;20028;-76
2021/04/27 10:00:25;;;;;;;6.57;4.40;;;18.60;34.80;;;;;;5074994;28;20104;-77
2021/04/27 10:02:52;;;;;;;5.43;3.88;;;18.40;35.10;;;;;;5073496;28;20036;-76
2021/04/27 10:08:40;;;;;;;4.88;3.80;;;18.30;34.10;;;;;;5075314;28;20063;-76
2021/04/27 10:11:06;;;;;;;5.05;4.13;;;17.70;34.80;;;;;;5075171;28;20025;-76
2021/04/27 10:13:31;;;;;;;6.25;3.67;;;17.30;35.00;;;;;;5075725;28;20037;-77
2021/04/27 10:15:58;;;;;;;5.55;3.88;;;16.90;34.80;;;;;;5075449;28;20032;-77
2021/04/27 10:18:24;;;;;;;7.22;3.70;;;16.50;34.70;;;;;;5075698;28;20032;-77
2021/04/27 10:20:50;;;;;;;4.95;3.58;;;16.20;35.10;;;;;;5075497;28;20020;-76
2021/04/27 10:23:15;;;;;;;5.50;3.80;;;16.00;35.60;;;;;;5074410;28;20024;-76
2021/04/27 10:25:41;;;;;;;6.85;4.50;;;16.00;36.00;;;;;;5075569;28;20078;-77
2021/04/27 10:28:08;;;;;;;10.73;4.53;;;16.30;36.80;;;;;;5075544;28;20454;-75
2021/04/27 10:30:42;;;;;;;9.98;4.80;;;16.60;37.40;;;;;;5075360;28;20033;-76
2021/04/27 10:33:14;;;;;;;13.73;5.18;;;16.80;37.60;;;;;;5073913;28;20394;-77
2021/04/27 10:35:43;;;;;;;9.27;4.22;;;17.00;37.60;;;;;;5074550;28;20029;-77
2021/04/27 10:38:18;;;;;;;7.60;4.80;;;16.90;37.50;;;;;;5074041;28;20408;-76
2021/04/27 10:40:53;;;;;;;9.55;4.30;;;16.70;37.70;;;;;;5073533;28;20021;-76
2021/04/27 10:43:34;;;;;;;5.63;3.83;;;16.50;37.50;;;;;;5072099;28;20036;-76
2021/04/27 10:46:02;;;;;;;4.80;4.20;;;16.20;37.30;;;;;;5068457;28;20032;-75
2021/04/27 10:48:29;;;;;;;6.05;3.92;;;16.00;37.50;;;;;;5073984;28;20024;-76
2021/04/27 10:50:55;;;;;;;9.10;4.80;;;15.80;37.60;;;;;;5073517;28;20451;-76
2021/04/27 10:53:36;;;;;;;6.68;4.60;;;15.80;37.80;;;;;;5073270;28;20332;-76
2021/04/27 10:56:05;;;;;;;9.05;4.43;;;15.70;37.90;;;;;;5072634;28;20028;-76
2021/04/27 10:58:54;;;;;;;10.95;4.93;;;15.70;38.10;;;;;;5073473;28;20027;-75
2021/04/27 11:01:26;;;;;;;14.15;5.43;;;15.60;38.30;;;;;;5072024;28;20099;-76
2021/04/27 11:03:54;;;;;;;12.23;5.15;;;15.60;38.50;;;;;;5070943;28;20043;-75
2021/04/27 11:10:00;;;;;;;10.30;5.00;;;15.50;39.20;;;;;;5071328;28;20175;-75
2021/04/27 11:12:28;;;;;;;14.88;4.78;;;15.30;39.30;;;;;;5072428;28;20040;-76
2021/04/27 11:15:01;;;;;;;11.13;5.25;;;15.30;39.40;;;;;;5070994;28;20089;-74
2021/04/27 11:17:30;;;;;;;8.07;5.03;;;15.10;39.30;;;;;;5073478;28;20964;-75
2021/04/27 11:19:56;;;;;;;7.30;5.00;;;14.90;39.30;;;;;;5070904;28;20067;-75
2021/04/27 11:22:29;;;;;;;7.75;4.43;;;14.80;39.60;;;;;;5073193;28;20135;-76
2021/04/27 11:24:56;;;;;;;8.48;5.00;;;14.60;39.80;;;;;;5070829;28;20116;-76
2021/04/27 11:27:25;;;;;;;10.10;5.35;;;14.50;40.10;;;;;;5071538;28;20532;-75
2021/04/27 11:29:53;;;;;;;6.90;4.85;;;14.30;40.30;;;;;;5073106;28;20062;-76
2021/04/27 11:32:19;;;;;;;10.90;4.97;;;14.10;40.40;;;;;;5072072;28;20118;-76
2021/04/27 11:34:54;;;;;;;8.07;5.40;;;14.00;40.80;;;;;;5074023;28;20079;-75
2021/04/27 11:37:26;;;;;;;8.20;5.10;;;13.90;41.20;;;;;;5074251;28;20039;-76
2021/04/27 11:39:53;;;;;;;10.20;5.05;;;13.70;41.50;;;;;;5072785;28;20029;-75
2021/04/27 11:42:28;;;;;;;12.93;5.88;;;13.70;41.70;;;;;;5072756;28;20055;-75
2021/04/27 11:44:57;;;;;;;16.38;5.82;;;13.50;41.40;;;;;;5070781;28;20024;-75
2021/04/27 11:47:23;;;;;;;9.68;5.90;;;13.40;41.60;;;;;;5073173;28;20028;-76
2021/04/27 11:50:01;;;;;;;9.38;6.20;;;13.10;42.00;;;;;;5065796;28;20103;-74
2021/04/27 11:52:52;;;;;;;8.70;5.32;;;12.80;42.80;;;;;;5071914;28;20048;-75
2021/04/27 11:55:23;;;;;;;8.02;5.75;;;12.40;43.30;;;;;;5071132;28;20119;-76
2021/04/27 11:57:53;;;;;;;8.35;5.47;;;12.10;43.90;;;;;;5072581;28;20021;-76
2021/04/27 12:00:26;;;;;;;8.10;5.25;;;11.80;45.00;;;;;;5072984;28;20028;-76
2021/04/27 12:02:52;;;;;;;9.05;6.38;;;11.50;46.00;;;;;;5073211;28;20040;-74
2021/04/27 12:05:18;;;;;;;13.88;7.75;;;11.30;47.40;;;;;;5073228;28;20025;-75
2021/04/27 12:11:30;;;;;;;25.75;12.80;;;10.70;50.50;;;;;;5053054;28;20106;-76
2021/04/27 12:14:12;;;;;;;18.80;10.20;;;10.60;51.10;;;;;;5053309;28;20558;-75
2021/04/27 12:16:38;;;;;;;15.98;10.18;;;10.40;51.50;;;;;;5053703;28;20025;-74
2021/04/27 12:19:10;;;;;;;26.23;11.65;;;10.30;51.90;;;;;;5054020;28;20359;-76
2021/04/27 12:21:51;;;;;;;20.23;12.00;;;10.20;52.50;;;;;;5073415;28;20038;-75
2021/04/27 12:24:17;;;;;;;20.20;12.65;;;10.20;53.50;;;;;;5073262;28;20031;-75
2021/04/27 12:26:54;;;;;;;23.58;12.30;;;10.30;53.60;;;;;;5073176;28;20529;-75
2021/04/27 12:29:34;;;;;;;10.25;6.80;;;10.30;54.20;;;;;;5072439;28;20040;-75
2021/04/27 12:32:08;;;;;;;8.25;6.25;;;10.20;54.40;;;;;;5073320;28;20474;-75
2021/04/27 12:34:34;;;;;;;9.30;6.38;;;10.10;55.10;;;;;;5073336;28;20036;-74
2021/04/27 12:37:00;;;;;;;9.50;6.45;;;9.90;55.40;;;;;;5073411;28;20025;-74
2021/04/27 12:39:34;;;;;;;9.85;6.93;;;9.90;56.20;;;;;;5072941;28;20028;-75
2021/04/27 12:42:15;;;;;;;8.95;6.15;;;9.90;57.10;;;;;;5073212;28;20025;-75
2021/04/27 12:44:42;;;;;;;9.65;6.47;;;9.90;57.20;;;;;;5073556;28;20116;-75
2021/04/27 12:47:31;;;;;;;7.78;5.65;;;10.00;57.20;;;;;;5073115;28;20039;-75
2021/04/27 12:49:58;;;;;;;8.35;5.57;;;10.20;57.40;;;;;;5073130;28;20025;-74
2021/04/27 12:52:24;;;;;;;7.95;5.60;;;10.30;56.70;;;;;;5073019;28;20024;-74
2021/04/27 12:55:00;;;;;;;7.05;5.68;;;10.30;56.50;;;;;;5072811;28;20066;-73
2021/04/27 12:57:27;;;;;;;12.75;8.00;;;10.30;56.90;;;;;;5071193;28;20035;-74
2021/04/27 12:59:56;;;;;;;12.73;8.13;;;10.30;56.80;;;;;;5072651;28;20036;-75
2021/04/27 13:02:22;;;;;;;9.05;7.10;;;10.30;57.40;;;;;;5069941;28;20478;-74
2021/04/27 13:04:56;;;;;;;11.85;7.60;;;10.30;57.40;;;;;;5073082;28;20029;-74
2021/04/27 13:07:34;;;;;;;9.77;6.72;;;10.20;58.40;;;;;;5072389;28;20032;-76
2021/04/27 13:10:13;;;;;;;11.82;7.63;;;10.30;58.30;;;;;;5070195;28;20039;-75
2021/04/27 13:12:42;;;;;;;15.82;12.73;;;10.30;58.60;;;;;;5070491;28;20040;-75
2021/04/27 13:15:08;;;;;;;11.85;9.63;;;10.40;58.70;;;;;;5072071;28;20053;-76
2021/04/27 13:17:41;;;;;;;12.63;7.75;;;10.30;58.60;;;;;;5072564;28;20024;-75
2021/04/27 13:20:09;;;;;;;12.82;9.32;;;10.10;58.50;;;;;;5072246;28;20355;-77
2021/04/27 13:22:38;;;;;;;12.43;8.43;;;9.90;58.80;;;;;;5072061;28;20039;-75
2021/04/27 13:25:12;;;;;;;9.35;6.95;;;9.70;59.50;;;;;;5072309;28;20025;-75
2021/04/27 13:27:47;;;;;;;7.20;5.97;;;9.60;59.90;;;;;;5072665;28;20029;-75